Time;durP1;ratioP1;P1;durP2;ratioP2;P2;SDS_P1;SDS_P2;PMS_P1;PMS_P2;Temp;Humidity;BMP_temperature;BMP_pressure;BME280_temperature;BME280_humidity;BME280_pressure;Samples;Min_cycle;Max_cycle;Signal;HPM_P1;HPM_P2
2023/07/03 00:02:00;;;;;;;6.45;5.22;;;;;;;27.19;59.91;100495.25;4860589;29;20056;-51
2023/07/03 00:04:27;;;;;;;6.35;4.85;;;;;;;27.19;59.65;100502.56;4860432;29;20045;-50
2023/07/03 00:06:55;;;;;;;6.35;5.32;;;;;;;27.20;59.43;100499.66;4861249;29;20049;-59
2023/07/03 00:09:22;;;;;;;5.68;4.97;;;;;;;27.20;59.61;100498.81;4861524;29;20061;-59
2023/07/03 00:11:50;;;;;;;5.85;4.95;;;;;;;27.19;59.81;100497.13;4861194;29;20065;-59
2023/07/03 00:14:17;;;;;;;6.43;4.97;;;;;;;27.21;59.64;100508.66;4861240;29;20057;-59
2023/07/03 00:16:44;;;;;;;6.78;5.30;;;;;;;27.19;59.69;100505.28;4861123;29;20052;-54
2023/07/03 00:19:15;;;;;;;5.68;4.78;;;;;;;27.19;59.55;100503.41;4861445;29;20053;-52
2023/07/03 00:21:43;;;;;;;6.40;5.20;;;;;;;27.19;59.43;100500.69;4861640;29;20060;-54
2023/07/03 00:24:11;;;;;;;6.65;4.80;;;;;;;27.19;59.52;100495.25;4860482;29;20045;-50
2023/07/03 00:26:39;;;;;;;6.30;4.18;;;;;;;27.19;59.32;100499.84;4860808;29;20052;-59
2023/07/03 00:29:07;;;;;;;6.43;4.72;;;;;;;27.19;59.67;100497.13;4875349;29;20049;-60
2023/07/03 00:31:34;;;;;;;5.30;4.60;;;;;;;27.19;59.39;100494.44;4861216;29;20065;-59
2023/07/03 00:34:02;;;;;;;5.57;4.30;;;;;;;27.18;59.67;100499.00;4861727;29;20064;-59
2023/07/03 00:36:29;;;;;;;6.47;5.22;;;;;;;27.19;59.60;100491.72;4861111;29;20049;-59
2023/07/03 00:38:58;;;;;;;5.95;5.20;;;;;;;27.19;59.35;100497.97;4860719;29;20398;-59
2023/07/03 00:41:26;;;;;;;4.60;4.07;;;;;;;27.19;59.34;100503.41;4860207;29;20053;-59
2023/07/03 00:43:53;;;;;;;5.68;4.85;;;;;;;27.19;59.26;100494.44;4860769;29;20050;-59
2023/07/03 00:46:20;;;;;;;5.95;4.63;;;;;;;27.20;59.32;100496.09;4874889;29;20056;-59
2023/07/03 00:48:48;;;;;;;5.57;4.55;;;;;;;27.19;59.17;100491.72;4861066;29;20064;-59
2023/07/03 00:51:18;;;;;;;5.20;4.68;;;;;;;27.20;59.30;100490.66;4874875;29;20057;-59
2023/07/03 00:53:45;;;;;;;7.03;4.45;;;;;;;27.19;59.32;100491.72;4875292;29;20421;-60
2023/07/03 00:56:13;;;;;;;6.45;4.45;;;;;;;27.19;59.46;100497.97;4860434;29;20072;-50
2023/07/03 00:58:40;;;;;;;5.18;4.20;;;;;;;27.19;59.17;100497.97;4874264;29;20058;-53
2023/07/03 01:01:28;;;;;;;6.22;4.57;;;;;;;27.19;59.02;100486.28;4859316;29;20064;-52
2023/07/03 01:04:04;;;;;;;5.32;4.50;;;;;;;27.20;58.96;100499.66;4873569;29;20042;-51
2023/07/03 01:06:40;;;;;;;6.57;4.85;;;;;;;27.20;58.97;100509.69;4860666;29;20057;-59
2023/07/03 01:09:11;;;;;;;5.95;4.63;;;;;;;27.19;58.95;100506.13;4859047;29;20050;-59
2023/07/03 01:11:39;;;;;;;5.30;4.25;;;;;;;27.20;59.20;100513.25;4860398;29;20065;-59
2023/07/03 01:14:09;;;;;;;6.82;5.22;;;;;;;27.20;58.96;100513.25;4859631;29;20073;-59
2023/07/03 01:16:37;;;;;;;7.22;4.63;;;;;;;27.20;59.23;100513.25;4864182;29;20046;-51
2023/07/03 01:19:12;;;;;;;5.97;4.40;;;;;;;27.20;58.82;100515.97;4864240;29;20057;-52
2023/07/03 01:21:55;;;;;;;4.97;4.32;;;;;;;27.20;59.11;100509.69;4864467;29;20060;-52
2023/07/03 01:24:34;;;;;;;;;;;;;;;27.18;59.00;100512.56;4878483;29;20061;-52
2023/07/03 01:27:05;;;;;;;5.22;4.43;;;;;;;27.19;58.72;100511.56;4877936;29;20308;-59
2023/07/03 01:29:34;;;;;;;5.30;4.03;;;;;;;27.20;59.09;100517.84;4863186;29;20074;-59
2023/07/03 01:32:05;;;;;;;4.57;3.70;;;;;;;27.20;58.67;100504.25;4863818;29;20061;-59
2023/07/03 01:34:33;;;;;;;5.15;4.30;;;;;;;27.19;58.71;100513.44;4862234;29;20057;-59
2023/07/03 01:37:03;;;;;;;4.65;4.15;;;;;;;27.19;58.57;100513.44;4878211;29;20054;-59
2023/07/03 01:39:31;;;;;;;5.28;4.43;;;;;;;27.20;58.48;100515.13;4877372;29;20054;-59
2023/07/03 01:41:59;;;;;;;5.05;4.15;;;;;;;27.20;58.58;100517.84;4863740;29;20121;-59
2023/07/03 01:44:27;;;;;;;4.43;3.75;;;;;;;27.19;58.16;100521.59;4878781;29;20054;-59
2023/07/03 01:46:54;;;;;;;4.82;4.20;;;;;;;27.19;58.38;100522.44;4863639;29;20052;-59
2023/07/03 01:49:21;;;;;;;5.60;4.25;;;;;;;27.19;58.54;100516.16;4877898;29;20045;-59
2023/07/03 01:52:00;;;;;;;5.63;3.63;;;;;;;27.19;58.54;100513.44;4878070;29;20054;-59
2023/07/03 01:54:35;;;;;;;5.60;4.00;;;;;;;27.20;58.40;100523.28;4863889;29;20049;-59
2023/07/03 01:57:04;;;;;;;4.20;3.00;;;;;;;27.19;58.38;100521.59;4877807;29;20510;-59
2023/07/03 01:59:33;;;;;;;4.95;3.60;;;;;;;27.19;58.02;100525.16;4862662;29;20081;-59
2023/07/03 02:02:15;;;;;;;4.95;4.22;;;;;;;27.18;58.37;100519.88;4863839;29;20060;-60
2023/07/03 02:05:07;;;;;;;5.53;4.47;;;;;;;27.19;58.08;100524.31;4862206;29;20046;-59
2023/07/03 02:07:37;;;;;;;4.85;3.60;;;;;;;27.19;58.06;100530.59;4862772;29;20060;-59
2023/07/03 02:10:05;;;;;;;4.93;3.45;;;;;;;27.19;57.87;100530.59;4861753;29;20064;-51
2023/07/03 02:12:32;;;;;;;4.78;3.80;;;;;;;27.19;57.97;100532.47;4877547;29;20057;-50
2023/07/03 02:15:04;;;;;;;5.20;3.42;;;;;;;27.19;58.16;100537.91;4877070;29;20057;-53
2023/07/03 02:17:31;;;;;;;4.63;3.30;;;;;;;27.19;58.04;100537.91;4877211;29;20482;-59
2023/07/03 02:19:59;;;;;;;5.20;3.47;;;;;;;27.19;58.01;100535.19;4862085;29;20064;-59
2023/07/03 02:22:26;;;;;;;4.43;3.67;;;;;;;27.19;58.00;100535.19;4863059;29;20398;-59
2023/07/03 02:24:53;;;;;;;4.80;3.92;;;;;;;27.18;57.89;100526.16;4868534;29;20058;-59
2023/07/03 02:27:21;;;;;;;4.55;3.13;;;;;;;27.18;57.56;100528.03;4844933;29;20042;-51
2023/07/03 02:29:49;;;;;;;4.15;3.47;;;;;;;27.19;57.69;100527.03;4844543;29;20057;-52
2023/07/03 02:32:17;;;;;;;4.72;3.25;;;;;;;27.19;57.69;100529.75;4844488;29;20054;-52
2023/07/03 02:34:44;;;;;;;4.07;3.10;;;;;;;27.19;57.44;100527.03;4844820;29;20533;-51
2023/07/03 02:37:13;;;;;;;4.78;3.63;;;;;;;27.19;57.38;100533.31;4858591;29;20061;-51
2023/07/03 02:39:41;;;;;;;4.18;3.38;;;;;;;27.19;57.67;100529.75;4844352;29;20538;-51
2023/07/03 02:42:08;;;;;;;4.63;3.65;;;;;;;27.19;57.73;100521.59;4844719;29;20054;-50
2023/07/03 02:44:36;;;;;;;4.72;3.65;;;;;;;27.17;57.60;100526.38;4857985;29;20391;-53
2023/07/03 02:47:04;;;;;;;5.03;3.83;;;;;;;27.18;57.62;100537.03;4858011;29;20058;-52
2023/07/03 02:49:33;;;;;;;4.32;3.05;;;;;;;27.18;57.60;100538.91;4858644;29;20478;-52
2023/07/03 02:52:04;;;;;;;4.05;3.22;;;;;;;27.18;57.59;100528.03;4857897;29;20451;-50
2023/07/03 02:54:33;;;;;;;4.82;3.60;;;;;;;27.19;57.61;100535.19;4861449;29;20050;-51
2023/07/03 02:57:02;;;;;;;4.70;3.22;;;;;;;27.18;57.77;100522.59;4877251;29;20050;-59
2023/07/03 02:59:29;;;;;;;4.38;3.40;;;;;;;27.19;58.00;100535.19;4861261;29;20065;-60
2023/07/03 03:01:58;;;;;;;4.75;3.50;;;;;;;27.18;57.83;100533.47;4876581;29;20054;-60
2023/07/03 03:04:27;;;;;;;4.97;3.50;;;;;;;27.18;57.61;100528.88;4876015;29;20061;-60
2023/07/03 03:06:55;;;;;;;3.92;3.13;;;;;;;27.18;57.54;100533.47;4860838;29;20056;-58
2023/07/03 03:09:23;;;;;;;5.10;3.53;;;;;;;27.16;57.69;100536.41;4860894;29;20053;-57
2023/07/03 03:11:52;;;;;;;4.50;3.70;;;;;;;27.17;57.18;100537.25;4861299;29;20073;-57
2023/07/03 03:14:19;;;;;;;5.07;3.92;;;;;;;27.15;57.07;100534.72;4862111;29;20054;-57
2023/07/03 03:16:46;;;;;;;4.65;3.58;;;;;;;27.15;57.15;100533.88;4862505;29;20049;-60
2023/07/03 03:19:14;;;;;;;4.85;3.33;;;;;;;27.15;56.92;100536.59;4862056;29;20053;-60
2023/07/03 03:21:41;;;;;;;4.63;3.35;;;;;;;27.14;56.71;100532.19;4875783;29;20057;-60
2023/07/03 03:24:09;;;;;;;3.78;3.10;;;;;;;27.13;56.72;100530.50;4862034;29;20502;-60
2023/07/03 03:26:36;;;;;;;5.78;3.22;;;;;;;27.11;56.75;100528.81;4861038;29;20057;-61
2023/07/03 03:29:04;;;;;;;6.00;3.72;;;;;;;27.11;56.53;100534.25;4875800;29;20414;-61
2023/07/03 03:31:31;;;;;;;5.50;3.50;;;;;;;27.11;56.57;100534.25;4861920;29;20049;-61
2023/07/03 03:34:03;;;;;;;5.72;3.58;;;;;;;27.10;56.27;100534.44;4876103;29;20057;-61
2023/07/03 03:36:33;;;;;;;4.63;3.28;;;;;;;27.09;56.51;100533.56;4875617;29;20057;-60
2023/07/03 03:39:01;;;;;;;5.93;4.05;;;;;;;27.09;56.22;100540.88;4860774;29;20053;-61
2023/07/03 03:41:29;;;;;;;5.85;3.53;;;;;;;27.08;56.10;100550.06;4876166;29;20057;-61
2023/07/03 03:43:57;;;;;;;5.40;4.03;;;;;;;27.06;56.26;100555.69;4861884;29;20064;-61
2023/07/03 03:46:24;;;;;;;4.53;3.30;;;;;;;27.06;56.17;100557.53;4875831;29;20057;-58
2023/07/03 03:48:52;;;;;;;4.80;3.50;;;;;;;27.05;56.16;100561.31;4875946;29;20053;-58
2023/07/03 03:51:21;;;;;;;4.05;3.08;;;;;;;27.04;56.10;100565.06;4875549;29;20066;-58
2023/07/03 03:53:49;;;;;;;5.40;3.80;;;;;;;27.03;56.32;100558.78;4875723;29;20516;-58
2023/07/03 03:56:16;;;;;;;5.30;3.55;;;;;;;27.04;56.68;100555.03;4875840;29;20062;-61
2023/07/03 03:58:44;;;;;;;4.53;3.80;;;;;;;27.02;56.40;100559.81;4859887;29;20053;-58
2023/07/03 04:01:11;;;;;;;4.95;3.22;;;;;;;27.01;56.17;100560.00;4861333;29;20065;-60
2023/07/03 04:03:39;;;;;;;4.40;3.70;;;;;;;27.01;56.35;100555.41;4861784;29;20062;-60
2023/07/03 04:06:08;;;;;;;5.25;3.20;;;;;;;27.02;56.43;100570.69;4860032;29;20052;-61
2023/07/03 04:08:35;;;;;;;4.55;3.40;;;;;;;27.01;56.46;100568.97;4860553;29;20046;-60
2023/07/03 04:11:03;;;;;;;3.95;3.33;;;;;;;27.00;56.30;100566.47;4861620;29;20049;-61
2023/07/03 04:13:30;;;;;;;6.28;3.50;;;;;;;27.00;56.33;100566.47;4861327;29;20478;-60
2023/07/03 04:16:00;;;;;;;4.82;3.53;;;;;;;27.00;56.28;100572.75;4861265;29;20053;-58
2023/07/03 04:18:31;;;;;;;5.30;3.50;;;;;;;26.99;56.13;100570.22;4861224;29;20053;-58
2023/07/03 04:20:59;;;;;;;4.28;2.85;;;;;;;26.99;56.15;100568.34;4861295;29;20056;-57
2023/07/03 04:23:27;;;;;;;4.57;3.38;;;;;;;26.99;56.00;100573.78;4875232;29;20490;-56
2023/07/03 04:25:55;;;;;;;5.25;3.50;;;;;;;26.99;55.84;100575.66;4860666;29;20513;-60
2023/07/03 04:28:23;;;;;;;5.03;3.83;;;;;;;26.98;56.32;100576.66;4860975;29;20518;-60
2023/07/03 04:30:50;;;;;;;5.55;3.70;;;;;;;26.98;55.96;100579.38;4860669;29;20056;-60
2023/07/03 04:33:17;;;;;;;5.93;3.35;;;;;;;26.97;56.24;100572.28;4860903;29;20057;-60
2023/07/03 04:35:46;;;;;;;4.95;3.85;;;;;;;26.98;56.28;100569.38;4861281;29;20060;-58
2023/07/03 04:38:18;;;;;;;4.78;3.40;;;;;;;26.98;56.00;100574.81;4860801;29;20045;-57
2023/07/03 04:40:45;;;;;;;4.85;3.60;;;;;;;26.98;56.41;100576.66;4860791;29;20057;-58
2023/07/03 04:43:15;;;;;;;4.65;3.33;;;;;;;26.97;56.31;100575.81;4861143;29;20474;-58
2023/07/03 04:45:49;;;;;;;5.40;3.58;;;;;;;26.97;55.84;100578.53;4860833;29;20413;-59
2023/07/03 04:48:18;;;;;;;4.57;3.13;;;;;;;26.96;55.94;100576.88;4860621;29;20414;-57
2023/07/03 04:50:48;;;;;;;5.35;3.33;;;;;;;26.96;55.80;100576.03;4860646;29;20057;-57
2023/07/03 04:53:20;;;;;;;6.30;3.60;;;;;;;26.96;56.02;100582.31;4860625;29;20054;-57
2023/07/03 04:55:49;;;;;;;5.10;4.00;;;;;;;26.95;55.92;100586.06;4874352;29;20061;-59
2023/07/03 04:58:17;;;;;;;4.68;3.00;;;;;;;26.97;55.83;100589.41;4860988;29;20060;-60
2023/07/03 05:00:46;;;;;;;5.35;3.58;;;;;;;26.96;55.92;100587.72;4860725;29;20064;-60
2023/07/03 05:03:14;;;;;;;4.55;3.60;;;;;;;26.97;55.86;100586.69;4860618;29;20045;-61
2023/07/03 05:05:42;;;;;;;4.55;3.70;;;;;;;26.99;55.91;100595.50;4860780;29;20049;-58
2023/07/03 05:08:10;;;;;;;3.92;3.17;;;;;;;26.98;56.10;100584.81;4858844;29;20061;-58
2023/07/03 05:10:37;;;;;;;5.38;3.38;;;;;;;26.98;55.89;100592.97;4859981;29;20050;-57
2023/07/03 05:13:04;;;;;;;4.53;3.17;;;;;;;26.97;55.89;100586.69;4860644;29;20053;-57
2023/07/03 05:15:32;;;;;;;5.60;3.35;;;;;;;26.99;56.01;100590.09;4860297;29;20062;-57
2023/07/03 05:17:59;;;;;;;4.28;3.47;;;;;;;26.98;56.13;100596.56;4860801;29;20049;-59
2023/07/03 05:20:28;;;;;;;6.60;3.67;;;;;;;26.99;56.08;100595.50;4860603;29;20056;-60
2023/07/03 05:22:56;;;;;;;7.82;4.03;;;;;;;26.99;56.21;100586.53;4860358;29;20394;-60
2023/07/03 05:25:23;;;;;;;5.70;3.75;;;;;;;27.00;56.14;100597.19;4860759;29;20049;-60
2023/07/03 05:27:51;;;;;;;6.70;3.40;;;;;;;27.00;56.40;100588.22;4860294;29;20046;-57
2023/07/03 05:30:18;;;;;;;4.47;3.60;;;;;;;27.00;56.51;100593.63;4860776;29;20057;-57
2023/07/03 05:32:46;;;;;;;5.35;3.95;;;;;;;27.00;56.57;100596.34;4860343;29;20494;-57
2023/07/03 05:35:14;;;;;;;4.88;3.17;;;;;;;27.00;56.63;100599.06;4860325;29;20053;-57
2023/07/03 05:37:41;;;;;;;4.82;3.38;;;;;;;27.00;56.56;100601.78;4860259;29;20393;-58
2023/07/03 05:40:09;;;;;;;5.72;3.17;;;;;;;27.00;56.39;100590.91;4860067;29;20057;-58
2023/07/03 05:42:37;;;;;;;4.30;3.25;;;;;;;27.00;56.20;100590.91;4874368;29;20080;-56
2023/07/03 05:45:05;;;;;;;5.25;3.15;;;;;;;27.00;56.16;100591.75;4860545;29;20056;-56
2023/07/03 05:47:34;;;;;;;3.97;2.92;;;;;;;26.99;56.00;100600.94;4860307;29;20054;-59
2023/07/03 05:50:02;;;;;;;5.50;3.88;;;;;;;27.00;55.59;100601.78;4860098;29;20069;-59
2023/07/03 05:52:31;;;;;;;6.15;3.78;;;;;;;26.99;55.89;100606.38;4860561;29;20050;-59
2023/07/03 05:54:58;;;;;;;4.40;3.38;;;;;;;27.00;55.53;100604.50;4860007;29;20053;-59
2023/07/03 05:57:25;;;;;;;6.07;3.88;;;;;;;27.00;55.56;100605.34;4859990;29;20049;-56
2023/07/03 05:59:54;;;;;;;4.88;3.30;;;;;;;27.00;55.98;100601.78;4860360;29;20054;-56
2023/07/03 06:02:21;;;;;;;4.57;3.15;;;;;;;27.01;55.65;100607.03;4863598;29;20057;-56
2023/07/03 06:04:49;;;;;;;4.07;3.15;;;;;;;27.01;55.73;100614.34;4863276;29;20076;-57
2023/07/03 06:07:16;;;;;;;4.00;3.03;;;;;;;27.01;55.90;100611.63;4862938;29;20529;-56
2023/07/03 06:09:45;;;;;;;4.88;3.38;;;;;;;27.01;55.84;100620.59;4862430;29;20050;-57
2023/07/03 06:12:13;;;;;;;4.00;2.78;;;;;;;27.01;55.47;100609.75;4862123;29;20441;-57
2023/07/03 06:14:40;;;;;;;4.32;2.80;;;;;;;27.02;55.47;100610.56;4863172;29;20505;-56
2023/07/03 06:17:07;;;;;;;4.47;2.92;;;;;;;27.02;55.52;100611.44;4863480;29;20057;-59
2023/07/03 06:19:35;;;;;;;5.22;2.88;;;;;;;27.03;56.01;100617.72;4863100;29;20045;-58
2023/07/03 06:22:02;;;;;;;4.38;2.90;;;;;;;27.03;56.13;100615.84;4863058;29;20406;-59
2023/07/03 06:24:29;;;;;;;3.97;3.17;;;;;;;27.05;56.04;100621.91;4863035;29;20053;-59
2023/07/03 06:26:57;;;;;;;4.30;2.97;;;;;;;27.05;55.97;100624.63;4862917;29;20521;-56
2023/07/03 06:29:25;;;;;;;5.57;3.25;;;;;;;27.05;55.90;100624.63;4862861;29;20048;-56
2023/07/03 06:31:52;;;;;;;6.80;3.35;;;;;;;27.05;55.62;100630.06;4863270;29;20509;-56
2023/07/03 06:34:19;;;;;;;4.13;2.75;;;;;;;27.05;55.12;100626.50;4863029;29;20075;-56
2023/07/03 06:36:47;;;;;;;6.63;3.10;;;;;;;27.02;54.23;100619.59;4862895;29;20072;-56
2023/07/03 06:39:14;;;;;;;4.75;2.38;;;;;;;27.01;54.03;100620.59;4862890;29;20486;-56
2023/07/03 06:41:42;;;;;;;4.65;2.85;;;;;;;26.98;53.68;100617.41;4863064;29;20057;-56
2023/07/03 06:44:16;;;;;;;5.65;3.05;;;;;;;26.96;53.66;100622.22;4862838;29;20400;-60
2023/07/03 06:46:44;;;;;;;7.78;3.30;;;;;;;26.95;53.39;100617.81;4862991;29;20053;-55
2023/07/03 06:49:12;;;;;;;5.03;2.90;;;;;;;26.95;53.55;100615.94;4861988;29;20490;-48
2023/07/03 06:51:40;;;;;;;4.22;2.75;;;;;;;26.94;53.39;100618.81;4862145;29;20477;-49
2023/07/03 06:54:08;;;;;;;4.18;2.50;;;;;;;26.94;52.93;100611.53;4862395;29;20061;-49
2023/07/03 06:56:35;;;;;;;4.93;2.55;;;;;;;26.95;52.77;100610.50;4862773;29;20050;-48
2023/07/03 06:59:02;;;;;;;5.53;2.53;;;;;;;26.93;52.37;100617.16;4863153;29;20049;-51
2023/07/03 07:01:30;;;;;;;3.70;2.47;;;;;;;26.93;52.45;100606.28;4863483;29;20068;-48
2023/07/03 07:03:57;;;;;;;5.78;2.38;;;;;;;26.92;52.28;100610.03;4861933;29;20057;-48
2023/07/03 07:06:27;;;;;;;5.10;2.20;;;;;;;26.92;51.85;100610.03;4862720;29;20049;-51
2023/07/03 07:08:55;;;;;;;3.97;2.50;;;;;;;26.89;51.59;100608.53;4862214;29;20045;-48
2023/07/03 07:11:29;;;;;;;4.22;2.28;;;;;;;26.90;51.52;100612.09;4858771;29;20127;-47
2023/07/03 07:13:58;;;;;;;3.58;2.20;;;;;;;26.91;51.48;100616.50;4843297;29;20054;-49
2023/07/03 07:16:34;;;;;;;3.97;2.50;;;;;;;26.90;51.45;100617.50;4844475;29;20069;-49
2023/07/03 07:19:05;;;;;;;4.25;2.42;;;;;;;26.90;51.47;100609.38;4843243;29;20478;-53
2023/07/03 07:21:34;;;;;;;4.65;2.22;;;;;;;26.92;51.85;100610.03;4844021;29;20501;-49
2023/07/03 07:24:13;;;;;;;3.63;2.35;;;;;;;26.93;51.89;100612.56;4843995;29;20054;-51
2023/07/03 07:26:40;;;;;;;4.45;3.00;;;;;;;26.93;51.86;100611.72;4843989;29;20061;-57
2023/07/03 07:29:08;;;;;;;5.10;2.95;;;;;;;26.93;51.91;100607.13;4843609;29;20046;-56
2023/07/03 07:31:38;;;;;;;3.80;2.53;;;;;;;26.95;52.24;100615.09;4843895;29;20072;-57
2023/07/03 07:34:10;;;;;;;5.10;2.95;;;;;;;26.94;52.34;100614.25;4843855;29;20061;-56
2023/07/03 07:36:38;;;;;;;5.03;2.95;;;;;;;26.96;52.42;100614.91;4843691;29;20619;-57
2023/07/03 07:39:07;;;;;;;4.88;3.00;;;;;;;26.96;52.75;100612.19;4843542;29;20046;-57
2023/07/03 07:41:34;;;;;;;7.35;4.03;;;;;;;26.96;53.06;100616.78;4843557;29;20073;-57
2023/07/03 07:44:02;;;;;;;5.13;3.30;;;;;;;26.98;53.06;100626.44;4843519;29;20070;-57
2023/07/03 07:46:31;;;;;;;4.68;2.80;;;;;;;26.98;53.11;100623.72;4843717;29;20057;-52
2023/07/03 07:49:00;;;;;;;4.35;3.17;;;;;;;27.01;53.09;100626.03;4843231;29;20514;-50
2023/07/03 07:51:28;;;;;;;5.22;3.53;;;;;;;27.05;53.39;100640.09;4843440;29;20050;-50
2023/07/03 07:53:56;;;;;;;5.28;3.22;;;;;;;27.06;53.77;100634.50;4857523;29;20111;-49
2023/07/03 07:56:26;;;;;;;5.50;4.00;;;;;;;27.07;53.84;100629.91;4861837;29;20049;-49
2023/07/03 07:58:54;;;;;;;5.93;3.75;;;;;;;27.05;54.02;100630.06;4861624;29;20053;-51
2023/07/03 08:01:21;;;;;;;7.63;3.92;;;;;;;27.05;54.44;100629.22;4861840;29;20391;-50
2023/07/03 08:03:49;;;;;;;6.30;3.78;;;;;;;27.03;54.68;100628.59;4861779;29;20063;-52
2023/07/03 08:06:16;;;;;;;5.95;3.85;;;;;;;27.00;54.90;100629.78;4861590;29;20050;-50
2023/07/03 08:08:44;;;;;;;6.10;4.60;;;;;;;27.01;55.08;100636.06;4861356;29;20053;-53
2023/07/03 08:11:11;;;;;;;6.25;3.80;;;;;;;27.01;54.96;100627.91;4861173;29;20053;-50
2023/07/03 08:13:40;;;;;;;4.45;3.53;;;;;;;27.01;54.94;100636.91;4861538;29;20061;-52
2023/07/03 08:16:10;;;;;;;7.60;4.75;;;;;;;27.02;55.06;100635.91;4861232;29;20060;-49
2023/07/03 08:18:37;;;;;;;5.45;4.07;;;;;;;27.02;55.06;100637.75;4861468;29;20058;-49
2023/07/03 08:21:05;;;;;;;5.35;4.18;;;;;;;27.02;55.42;100633.19;4861114;29;20046;-50
2023/07/03 08:23:33;;;;;;;5.65;3.70;;;;;;;27.04;55.29;100632.97;4860684;29;20045;-50
2023/07/03 08:26:01;;;;;;;6.30;4.05;;;;;;;27.04;55.59;100635.69;4861286;29;20057;-57
2023/07/03 08:28:29;;;;;;;6.03;4.30;;;;;;;27.02;55.35;100638.63;4860723;29;20057;-58
2023/07/03 08:31:00;;;;;;;5.32;4.13;;;;;;;27.02;55.90;100643.19;4861022;29;20056;-58
2023/07/03 08:33:28;;;;;;;6.68;4.70;;;;;;;27.03;55.72;100637.56;4845213;29;20050;-58
2023/07/03 08:35:55;;;;;;;6.45;4.60;;;;;;;27.04;55.67;100649.28;4858012;29;20053;-58
2023/07/03 08:38:25;;;;;;;6.55;4.68;;;;;;;27.05;55.92;100643.66;4845775;29;20049;-58
2023/07/03 08:41:00;;;;;;;6.00;4.35;;;;;;;27.06;56.44;100634.50;4842343;29;20057;-58
2023/07/03 08:43:34;;;;;;;5.65;4.75;;;;;;;27.07;56.15;100641.59;4842451;29;20046;-58
2023/07/03 08:46:05;;;;;;;6.88;5.25;;;;;;;27.07;56.54;100640.78;4843042;29;20050;-50
2023/07/03 08:48:35;;;;;;;6.63;4.78;;;;;;;27.07;56.76;100628.03;4842597;29;20061;-50
2023/07/03 08:51:07;;;;;;;7.75;5.32;;;;;;;27.07;56.60;100632.63;4841326;29;20427;-51
2023/07/03 08:53:38;;;;;;;6.97;4.78;;;;;;;27.09;56.57;100634.09;4842499;29;20050;-50
2023/07/03 08:56:15;;;;;;;6.93;5.20;;;;;;;27.09;56.62;100628.66;4848746;29;20045;-58
2023/07/03 08:58:46;;;;;;;6.38;5.20;;;;;;;27.10;56.83;100633.13;4860523;29;20054;-58
2023/07/03 09:01:45;;;;;;;7.30;5.07;;;;;;;27.11;56.65;100632.09;4860965;29;20064;-58
2023/07/03 09:04:37;;;;;;;7.25;5.75;;;;;;;27.14;56.94;100640.88;4875027;29;20060;-58
2023/07/03 09:07:08;;;;;;;6.70;5.23;;;;;;;27.14;57.18;100638.16;4846463;29;20053;-58
2023/07/03 09:10:07;;;;;;;5.35;4.85;;;;;;;27.14;56.95;100639.00;4842303;29;20045;-58
2023/07/03 09:12:41;;;;;;;7.40;5.88;;;;;;;27.16;57.46;100639.66;4842613;29;20054;-58
2023/07/03 09:15:23;;;;;;;8.00;6.25;;;;;;;27.17;57.51;100643.22;4842113;29;20046;-58
2023/07/03 09:17:52;;;;;;;8.20;6.28;;;;;;;27.18;57.42;100642.19;4842488;29;20053;-49
2023/07/03 09:20:22;;;;;;;7.43;6.45;;;;;;;27.19;57.53;100641.19;4842176;29;20517;-51
2023/07/03 09:23:04;;;;;;;7.35;6.03;;;;;;;27.20;57.87;100651.00;4856286;29;20498;-49
2023/07/03 09:25:57;;;;;;;8.23;6.43;;;;;;;27.19;57.92;100650.16;4842360;29;20057;-49
2023/07/03 09:28:35;;;;;;;8.00;7.18;;;;;;;27.19;58.06;100644.72;4842273;29;20046;-50
2023/07/03 09:31:03;;;;;;;8.23;6.40;;;;;;;27.20;57.68;100649.13;4841768;29;20057;-50
2023/07/03 09:33:31;;;;;;;7.22;6.28;;;;;;;27.21;57.86;100649.97;4842139;29;20053;-50
2023/07/03 09:36:18;;;;;;;6.80;6.10;;;;;;;27.22;57.38;100649.75;4857917;29;20054;-50
2023/07/03 09:38:46;;;;;;;9.05;6.03;;;;;;;27.22;57.72;100649.75;4845698;29;20053;-51
2023/07/03 09:41:27;;;;;;;7.15;5.97;;;;;;;27.23;57.79;100650.63;4845572;29;20509;-52
2023/07/03 09:43:55;;;;;;;6.60;5.90;;;;;;;27.25;57.36;100649.41;4846148;29;20065;-50
2023/07/03 09:46:24;;;;;;;7.28;6.03;;;;;;;27.26;57.88;100644.81;4855796;29;20045;-58
2023/07/03 09:48:53;;;;;;;7.55;6.18;;;;;;;27.26;57.71;100650.22;4850460;29;20465;-59
2023/07/03 09:51:29;;;;;;;7.63;6.22;;;;;;;27.27;57.31;100646.50;4845153;29;20049;-58
2023/07/03 09:54:04;;;;;;;6.90;6.25;;;;;;;27.26;57.69;100642.09;4845394;29;20050;-58
2023/07/03 09:56:33;;;;;;;8.93;6.78;;;;;;;27.27;57.66;100650.06;4845629;29;20054;-51
2023/07/03 09:59:03;;;;;;;8.82;7.03;;;;;;;27.27;57.49;100646.50;4845157;29;20069;-51
2023/07/03 10:01:32;;;;;;;8.05;5.80;;;;;;;27.28;57.81;100645.47;4845048;29;20050;-52
2023/07/03 10:04:14;;;;;;;9.15;7.03;;;;;;;27.28;58.00;100646.31;4844862;29;20437;-51
2023/07/03 10:06:58;;;;;;;6.97;6.07;;;;;;;27.29;58.03;100647.16;4858865;29;20065;-50
2023/07/03 10:09:30;;;;;;;7.13;6.30;;;;;;;27.29;57.96;100647.16;4844999;29;20061;-50
2023/07/03 10:12:09;;;;;;;8.43;6.45;;;;;;;27.29;57.69;100639.00;4845279;29;20050;-50
2023/07/03 10:15:06;;;;;;;7.22;6.43;;;;;;;27.29;57.75;100648.00;4844946;29;20057;-52
2023/07/03 10:17:41;;;;;;;8.38;6.38;;;;;;;27.30;57.40;100651.53;4845018;29;20057;-49
2023/07/03 10:20:27;;;;;;;7.55;6.25;;;;;;;27.30;57.29;100649.66;4845170;29;20056;-50
2023/07/03 10:22:58;;;;;;;9.70;6.45;;;;;;;27.32;58.06;100649.50;4844559;29;20058;-53
2023/07/03 10:25:34;;;;;;;7.60;6.80;;;;;;;27.33;57.96;100656.63;4846672;29;20403;-53
2023/07/03 10:28:08;;;;;;;8.68;7.55;;;;;;;27.33;58.28;100646.56;4863205;29;20050;-58
2023/07/03 10:30:39;;;;;;;8.52;7.15;;;;;;;27.33;57.80;100645.75;4863256;29;20050;-58
2023/07/03 10:33:14;;;;;;;7.88;7.05;;;;;;;27.33;58.06;100645.75;4856124;29;20053;-58
2023/07/03 10:35:43;;;;;;;7.68;6.70;;;;;;;27.33;58.09;100651.19;4844597;29;20053;-51
2023/07/03 10:38:16;;;;;;;7.70;6.90;;;;;;;27.34;58.06;100644.69;4844603;29;20052;-58
2023/07/03 10:40:55;;;;;;;8.02;7.22;;;;;;;27.34;58.19;100650.13;4844655;29;20061;-58
2023/07/03 10:43:26;;;;;;;9.73;7.30;;;;;;;27.34;58.06;100648.25;4844517;29;20057;-58
2023/07/03 10:45:54;;;;;;;9.20;6.60;;;;;;;27.35;58.08;100651.84;4844420;29;20490;-50
2023/07/03 10:48:26;;;;;;;8.27;7.32;;;;;;;27.36;58.09;100650.81;4843112;29;20054;-52
2023/07/03 10:51:15;;;;;;;7.25;6.28;;;;;;;27.35;57.74;100647.25;4844201;29;20053;-49
2023/07/03 10:53:52;;;;;;;7.93;6.43;;;;;;;27.38;57.56;100651.44;4845104;29;20057;-50
2023/07/03 10:56:47;;;;;;;7.95;7.13;;;;;;;27.37;57.66;100647.03;4844359;29;20471;-57
2023/07/03 10:59:26;;;;;;;7.57;6.78;;;;;;;27.38;57.50;100648.72;4845863;29;20066;-57
2023/07/03 11:02:35;;;;;;;6.88;5.78;;;;;;;27.38;57.21;100643.28;4844334;29;20050;-57
2023/07/03 11:05:14;;;;;;;8.10;7.30;;;;;;;27.38;57.38;100637.00;4844304;29;20050;-57
2023/07/03 11:07:50;;;;;;;8.23;7.43;;;;;;;27.40;57.54;100632.25;4844045;29;20062;-49
2023/07/03 11:10:23;;;;;;;6.95;6.25;;;;;;;27.39;57.40;100631.41;4844014;29;20050;-51
2023/07/03 11:13:16;;;;;;;8.15;7.35;;;;;;;27.40;57.46;100638.53;4844214;29;20053;-49
2023/07/03 11:16:02;;;;;;;7.15;6.45;;;;;;;27.40;57.05;100633.09;4844169;29;20046;-51
2023/07/03 11:19:08;;;;;;;8.70;7.15;;;;;;;27.43;56.66;100632.72;4844051;29;20053;-50
2023/07/03 11:21:47;;;;;;;8.20;6.80;;;;;;;27.49;56.42;100629.22;4843940;29;20046;-51
2023/07/03 11:24:29;;;;;;;7.22;6.47;;;;;;;27.52;56.11;100631.56;4857820;29;20053;-49
2023/07/03 11:27:17;;;;;;;7.45;6.70;;;;;;;27.52;56.37;100628.84;4844027;29;20053;-57
2023/07/03 11:29:48;;;;;;;7.57;6.43;;;;;;;27.51;56.10;100634.47;4844072;29;20490;-58
2023/07/03 11:32:16;;;;;;;7.57;6.82;;;;;;;27.50;56.49;100630.88;4843703;29;20046;-57
2023/07/03 11:34:44;;;;;;;6.75;5.97;;;;;;;27.50;56.61;100627.34;4843786;29;20056;-57
2023/07/03 11:37:39;;;;;;;7.78;6.78;;;;;;;27.48;56.53;100629.41;4843367;29;20066;-56
2023/07/03 11:40:37;;;;;;;7.47;6.60;;;;;;;27.47;56.58;100625.84;4843639;29;20042;-57
2023/07/03 11:43:17;;;;;;;7.80;6.93;;;;;;;27.46;56.62;100621.44;4843577;29;20436;-57